sensor_id;sensor_type;location;lat;lon;timestamp;temperature;humidity
75493;DHT22;64071;51.466;7.260;2022-10-24T00:00:22;23.10;47.90
75493;DHT22;64071;51.466;7.260;2022-10-24T00:02:48;23.10;47.90
75493;DHT22;64071;51.466;7.260;2022-10-24T00:05:14;23.10;47.90
75493;DHT22;64071;51.466;7.260;2022-10-24T00:07:40;23.10;47.90
75493;DHT22;64071;51.466;7.260;2022-10-24T00:10:07;23.10;47.90
75493;DHT22;64071;51.466;7.260;2022-10-24T00:12:32;23.10;47.90
75493;DHT22;64071;51.466;7.260;2022-10-24T00:14:58;23.10;47.90
75493;DHT22;64071;51.466;7.260;2022-10-24T00:17:24;23.10;47.90
75493;DHT22;64071;51.466;7.260;2022-10-24T00:19:50;23.10;47.90
75493;DHT22;64071;51.466;7.260;2022-10-24T00:22:19;23.00;47.90
75493;DHT22;64071;51.466;7.260;2022-10-24T00:24:44;23.00;48.00
75493;DHT22;64071;51.466;7.260;2022-10-24T00:27:10;23.10;48.00
75493;DHT22;64071;51.466;7.260;2022-10-24T00:29:35;23.10;48.00
75493;DHT22;64071;51.466;7.260;2022-10-24T00:32:01;23.00;48.00
75493;DHT22;64071;51.466;7.260;2022-10-24T00:34:26;23.00;47.90
75493;DHT22;64071;51.466;7.260;2022-10-24T00:36:52;23.10;48.00
75493;DHT22;64071;51.466;7.260;2022-10-24T00:39:17;23.00;48.00
75493;DHT22;64071;51.466;7.260;2022-10-24T00:41:43;23.00;48.00
75493;DHT22;64071;51.466;7.260;2022-10-24T00:46:41;23.00;48.00
75493;DHT22;64071;51.466;7.260;2022-10-24T00:49:12;23.00;48.00
75493;DHT22;64071;51.466;7.260;2022-10-24T00:51:39;23.00;48.00
75493;DHT22;64071;51.466;7.260;2022-10-24T00:54:08;23.00;48.10
75493;DHT22;64071;51.466;7.260;2022-10-24T00:56:38;23.00;48.00
75493;DHT22;64071;51.466;7.260;2022-10-24T00:59:07;23.00;48.10
75493;DHT22;64071;51.466;7.260;2022-10-24T01:01:33;23.00;48.00
75493;DHT22;64071;51.466;7.260;2022-10-24T01:03:59;23.00;48.00
75493;DHT22;64071;51.466;7.260;2022-10-24T01:06:45;23.00;48.10
75493;DHT22;64071;51.466;7.260;2022-10-24T01:09:31;23.00;48.00
75493;DHT22;64071;51.466;7.260;2022-10-24T01:18:09;23.00;48.10
75493;DHT22;64071;51.466;7.260;2022-10-24T01:23:24;23.00;48.10
75493;DHT22;64071;51.466;7.260;2022-10-24T01:34:47;23.00;48.10
75493;DHT22;64071;51.466;7.260;2022-10-24T01:43:13;23.00;48.00
75493;DHT22;64071;51.466;7.260;2022-10-24T01:45:44;23.00;48.00
75493;DHT22;64071;51.466;7.260;2022-10-24T01:48:14;23.00;48.00
75493;DHT22;64071;51.466;7.260;2022-10-24T01:50:42;23.00;48.00
75493;DHT22;64071;51.466;7.260;2022-10-24T01:53:09;23.00;48.00
75493;DHT22;64071;51.466;7.260;2022-10-24T01:55:37;23.00;48.00
75493;DHT22;64071;51.466;7.260;2022-10-24T01:58:06;23.10;47.90
75493;DHT22;64071;51.466;7.260;2022-10-24T02:00:31;23.00;47.90
75493;DHT22;64071;51.466;7.260;2022-10-24T02:03:21;23.10;47.90
75493;DHT22;64071;51.466;7.260;2022-10-24T02:05:52;23.10;47.90
75493;DHT22;64071;51.466;7.260;2022-10-24T02:08:26;23.10;47.90
75493;DHT22;64071;51.466;7.260;2022-10-24T02:10:57;23.10;47.90
75493;DHT22;64071;51.466;7.260;2022-10-24T02:15:58;23.10;47.90
75493;DHT22;64071;51.466;7.260;2022-10-24T02:18:25;23.10;47.90
75493;DHT22;64071;51.466;7.260;2022-10-24T02:26:06;23.10;47.90
75493;DHT22;64071;51.466;7.260;2022-10-24T02:28:41;23.10;47.90
75493;DHT22;64071;51.466;7.260;2022-10-24T02:31:11;23.10;47.90
75493;DHT22;64071;51.466;7.260;2022-10-24T02:33:41;23.10;47.90
75493;DHT22;64071;51.466;7.260;2022-10-24T02:36:09;23.10;47.90
75493;DHT22;64071;51.466;7.260;2022-10-24T02:38:40;23.10;47.90
75493;DHT22;64071;51.466;7.260;2022-10-24T02:41:13;23.10;47.90
75493;DHT22;64071;51.466;7.260;2022-10-24T02:43:40;23.00;47.90
75493;DHT22;64071;51.466;7.260;2022-10-24T02:46:08;23.00;47.90
75493;DHT22;64071;51.466;7.260;2022-10-24T02:48:39;23.00;47.90
75493;DHT22;64071;51.466;7.260;2022-10-24T02:51:06;23.10;47.90
75493;DHT22;64071;51.466;7.260;2022-10-24T02:53:35;23.00;47.90
75493;DHT22;64071;51.466;7.260;2022-10-24T02:56:01;23.00;47.90
75493;DHT22;64071;51.466;7.260;2022-10-24T02:58:27;23.00;47.90
75493;DHT22;64071;51.466;7.260;2022-10-24T03:00:52;23.00;47.90
75493;DHT22;64071;51.466;7.260;2022-10-24T03:03:18;23.00;47.90
75493;DHT22;64071;51.466;7.260;2022-10-24T03:05:43;23.00;47.90
75493;DHT22;64071;51.466;7.260;2022-10-24T03:08:10;23.00;47.90
75493;DHT22;64071;51.466;7.260;2022-10-24T03:10:36;23.00;47.80
75493;DHT22;64071;51.466;7.260;2022-10-24T03:13:02;23.00;47.90
75493;DHT22;64071;51.466;7.260;2022-10-24T03:15:28;23.10;47.90
75493;DHT22;64071;51.466;7.260;2022-10-24T03:17:53;23.00;47.90
75493;DHT22;64071;51.466;7.260;2022-10-24T03:20:19;23.10;47.90
75493;DHT22;64071;51.466;7.260;2022-10-24T03:22:44;23.10;47.90
75493;DHT22;64071;51.466;7.260;2022-10-24T03:25:10;23.00;47.80
75493;DHT22;64071;51.466;7.260;2022-10-24T03:27:36;23.10;47.80
75493;DHT22;64071;51.466;7.260;2022-10-24T03:30:03;23.00;47.80
75493;DHT22;64071;51.466;7.260;2022-10-24T03:32:29;23.10;47.90
75493;DHT22;64071;51.466;7.260;2022-10-24T03:34:54;23.10;47.80
75493;DHT22;64071;51.466;7.260;2022-10-24T03:37:20;23.00;47.80
75493;DHT22;64071;51.466;7.260;2022-10-24T03:39:45;23.00;47.80
75493;DHT22;64071;51.466;7.260;2022-10-24T03:42:11;23.10;47.80
75493;DHT22;64071;51.466;7.260;2022-10-24T03:44:37;23.10;47.80
75493;DHT22;64071;51.466;7.260;2022-10-24T03:47:02;23.00;47.80
75493;DHT22;64071;51.466;7.260;2022-10-24T03:49:28;23.10;47.70
75493;DHT22;64071;51.466;7.260;2022-10-24T03:51:54;23.10;47.70
75493;DHT22;64071;51.466;7.260;2022-10-24T03:54:19;23.10;47.70
75493;DHT22;64071;51.466;7.260;2022-10-24T03:56:46;23.10;47.70
75493;DHT22;64071;51.466;7.260;2022-10-24T03:59:12;23.10;47.70
75493;DHT22;64071;51.466;7.260;2022-10-24T04:01:38;23.10;47.60
75493;DHT22;64071;51.466;7.260;2022-10-24T04:04:04;23.10;47.60
75493;DHT22;64071;51.466;7.260;2022-10-24T04:06:29;23.10;47.60
75493;DHT22;64071;51.466;7.260;2022-10-24T04:08:55;23.10;47.60
75493;DHT22;64071;51.466;7.260;2022-10-24T04:11:22;23.10;47.60
75493;DHT22;64071;51.466;7.260;2022-10-24T04:13:47;23.10;47.60
75493;DHT22;64071;51.466;7.260;2022-10-24T04:16:13;23.10;47.60
75493;DHT22;64071;51.466;7.260;2022-10-24T04:18:38;23.10;47.60
75493;DHT22;64071;51.466;7.260;2022-10-24T04:21:04;23.10;47.60
75493;DHT22;64071;51.466;7.260;2022-10-24T04:23:30;23.10;47.60
75493;DHT22;64071;51.466;7.260;2022-10-24T04:26:00;23.10;47.60
75493;DHT22;64071;51.466;7.260;2022-10-24T04:28:26;23.10;47.60
75493;DHT22;64071;51.466;7.260;2022-10-24T04:30:55;23.10;47.60
75493;DHT22;64071;51.466;7.260;2022-10-24T04:33:21;23.10;47.70
75493;DHT22;64071;51.466;7.260;2022-10-24T04:35:48;23.10;47.60
75493;DHT22;64071;51.466;7.260;2022-10-24T04:38:13;23.10;47.60
75493;DHT22;64071;51.466;7.260;2022-10-24T04:40:39;23.10;47.60
75493;DHT22;64071;51.466;7.260;2022-10-24T04:43:05;23.10;47.70
75493;DHT22;64071;51.466;7.260;2022-10-24T04:45:33;23.10;47.70
75493;DHT22;64071;51.466;7.260;2022-10-24T04:47:58;23.10;47.60
75493;DHT22;64071;51.466;7.260;2022-10-24T04:50:27;23.10;47.70
75493;DHT22;64071;51.466;7.260;2022-10-24T04:52:52;23.10;47.70
75493;DHT22;64071;51.466;7.260;2022-10-24T04:55:18;23.10;47.70
75493;DHT22;64071;51.466;7.260;2022-10-24T04:57:43;23.10;47.60
75493;DHT22;64071;51.466;7.260;2022-10-24T05:00:09;23.10;47.70
75493;DHT22;64071;51.466;7.260;2022-10-24T05:02:35;23.10;47.70
75493;DHT22;64071;51.466;7.260;2022-10-24T05:05:01;23.10;47.70
75493;DHT22;64071;51.466;7.260;2022-10-24T05:07:26;23.10;47.70
75493;DHT22;64071;51.466;7.260;2022-10-24T05:09:52;23.10;47.70
75493;DHT22;64071;51.466;7.260;2022-10-24T05:12:17;23.10;47.60
75493;DHT22;64071;51.466;7.260;2022-10-24T05:14:43;23.10;47.60
75493;DHT22;64071;51.466;7.260;2022-10-24T05:17:12;23.10;47.50
75493;DHT22;64071;51.466;7.260;2022-10-24T05:19:37;23.10;47.20
75493;DHT22;64071;51.466;7.260;2022-10-24T05:22:03;23.10;47.20
75493;DHT22;64071;51.466;7.260;2022-10-24T05:24:28;23.00;47.10
75493;DHT22;64071;51.466;7.260;2022-10-24T05:26:54;23.00;47.00
75493;DHT22;64071;51.466;7.260;2022-10-24T05:29:20;23.00;46.90
75493;DHT22;64071;51.466;7.260;2022-10-24T05:31:45;23.00;46.80
75493;DHT22;64071;51.466;7.260;2022-10-24T05:34:11;23.00;46.80
75493;DHT22;64071;51.466;7.260;2022-10-24T05:36:37;23.00;46.50
75493;DHT22;64071;51.466;7.260;2022-10-24T05:39:02;23.00;46.50
75493;DHT22;64071;51.466;7.260;2022-10-24T05:41:28;23.00;46.50
75493;DHT22;64071;51.466;7.260;2022-10-24T05:43:54;23.00;46.50
75493;DHT22;64071;51.466;7.260;2022-10-24T05:46:19;23.00;46.40
75493;DHT22;64071;51.466;7.260;2022-10-24T05:48:45;23.10;46.30
75493;DHT22;64071;51.466;7.260;2022-10-24T05:51:11;23.10;46.30
75493;DHT22;64071;51.466;7.260;2022-10-24T05:53:36;23.10;46.30
75493;DHT22;64071;51.466;7.260;2022-10-24T05:56:02;23.10;46.20
75493;DHT22;64071;51.466;7.260;2022-10-24T05:58:27;23.10;46.00
75493;DHT22;64071;51.466;7.260;2022-10-24T06:00:53;23.10;46.10
75493;DHT22;64071;51.466;7.260;2022-10-24T06:03:18;23.00;46.00
75493;DHT22;64071;51.466;7.260;2022-10-24T06:05:46;23.10;46.00
75493;DHT22;64071;51.466;7.260;2022-10-24T06:08:12;23.10;46.00
75493;DHT22;64071;51.466;7.260;2022-10-24T06:10:38;23.10;45.90
75493;DHT22;64071;51.466;7.260;2022-10-24T06:13:03;23.20;45.90
75493;DHT22;64071;51.466;7.260;2022-10-24T06:15:29;23.20;45.70
75493;DHT22;64071;51.466;7.260;2022-10-24T06:17:54;23.20;45.80
75493;DHT22;64071;51.466;7.260;2022-10-24T06:20:20;23.20;45.70
75493;DHT22;64071;51.466;7.260;2022-10-24T06:22:48;23.20;45.50
75493;DHT22;64071;51.466;7.260;2022-10-24T06:25:14;23.20;45.60
75493;DHT22;64071;51.466;7.260;2022-10-24T06:27:41;23.20;45.40
75493;DHT22;64071;51.466;7.260;2022-10-24T06:30:07;23.20;45.40
75493;DHT22;64071;51.466;7.260;2022-10-24T06:32:34;23.20;45.30
75493;DHT22;64071;51.466;7.260;2022-10-24T06:35:00;23.20;45.30
75493;DHT22;64071;51.466;7.260;2022-10-24T06:37:26;23.20;45.30
75493;DHT22;64071;51.466;7.260;2022-10-24T06:39:53;23.20;45.10
75493;DHT22;64071;51.466;7.260;2022-10-24T06:42:18;23.30;45.10
75493;DHT22;64071;51.466;7.260;2022-10-24T06:44:44;23.30;45.10
75493;DHT22;64071;51.466;7.260;2022-10-24T06:47:09;23.20;45.10
75493;DHT22;64071;51.466;7.260;2022-10-24T06:49:35;23.30;45.00
75493;DHT22;64071;51.466;7.260;2022-10-24T06:52:00;23.30;45.00
75493;DHT22;64071;51.466;7.260;2022-10-24T06:54:26;23.30;44.90
75493;DHT22;64071;51.466;7.260;2022-10-24T06:56:52;23.30;44.90
75493;DHT22;64071;51.466;7.260;2022-10-24T06:59:17;23.30;44.80
75493;DHT22;64071;51.466;7.260;2022-10-24T07:01:43;23.30;44.80
75493;DHT22;64071;51.466;7.260;2022-10-24T07:04:09;23.30;44.80
75493;DHT22;64071;51.466;7.260;2022-10-24T07:06:35;23.30;44.70
75493;DHT22;64071;51.466;7.260;2022-10-24T07:09:02;23.30;44.80
75493;DHT22;64071;51.466;7.260;2022-10-24T07:11:28;23.30;44.80
75493;DHT22;64071;51.466;7.260;2022-10-24T07:13:54;23.30;44.70
75493;DHT22;64071;51.466;7.260;2022-10-24T07:16:21;23.30;44.60
75493;DHT22;64071;51.466;7.260;2022-10-24T07:18:47;23.30;44.70
75493;DHT22;64071;51.466;7.260;2022-10-24T07:21:31;23.30;44.60
75493;DHT22;64071;51.466;7.260;2022-10-24T07:23:58;23.30;44.50
75493;DHT22;64071;51.466;7.260;2022-10-24T07:26:24;23.30;44.60
75493;DHT22;64071;51.466;7.260;2022-10-24T07:28:54;23.30;44.60
75493;DHT22;64071;51.466;7.260;2022-10-24T07:31:23;23.40;44.60
75493;DHT22;64071;51.466;7.260;2022-10-24T07:33:50;23.30;44.60
75493;DHT22;64071;51.466;7.260;2022-10-24T07:36:20;23.30;44.50
75493;DHT22;64071;51.466;7.260;2022-10-24T07:38:47;23.30;44.60
75493;DHT22;64071;51.466;7.260;2022-10-24T07:41:13;23.30;44.60
75493;DHT22;64071;51.466;7.260;2022-10-24T07:43:38;23.40;44.60
75493;DHT22;64071;51.466;7.260;2022-10-24T07:46:06;23.40;44.60
75493;DHT22;64071;51.466;7.260;2022-10-24T07:48:31;23.40;44.50
75493;DHT22;64071;51.466;7.260;2022-10-24T07:50:57;23.40;44.60
75493;DHT22;64071;51.466;7.260;2022-10-24T07:53:22;23.40;44.70
75493;DHT22;64071;51.466;7.260;2022-10-24T07:55:50;23.40;44.60
75493;DHT22;64071;51.466;7.260;2022-10-24T07:58:15;23.50;44.50
75493;DHT22;64071;51.466;7.260;2022-10-24T08:00:41;23.50;44.50
75493;DHT22;64071;51.466;7.260;2022-10-24T08:03:07;23.50;44.50
75493;DHT22;64071;51.466;7.260;2022-10-24T08:05:32;23.50;44.30
75493;DHT22;64071;51.466;7.260;2022-10-24T08:07:58;23.60;44.30
75493;DHT22;64071;51.466;7.260;2022-10-24T08:10:23;23.50;44.20
75493;DHT22;64071;51.466;7.260;2022-10-24T08:12:49;23.60;44.20
75493;DHT22;64071;51.466;7.260;2022-10-24T08:15:15;23.60;44.10
75493;DHT22;64071;51.466;7.260;2022-10-24T08:17:40;23.60;44.10
75493;DHT22;64071;51.466;7.260;2022-10-24T08:20:07;23.70;44.00
75493;DHT22;64071;51.466;7.260;2022-10-24T08:22:34;23.70;44.00
75493;DHT22;64071;51.466;7.260;2022-10-24T08:25:00;23.70;44.00
75493;DHT22;64071;51.466;7.260;2022-10-24T08:27:26;23.80;43.90
75493;DHT22;64071;51.466;7.260;2022-10-24T08:29:52;23.80;43.80
75493;DHT22;64071;51.466;7.260;2022-10-24T08:32:17;23.80;43.70
75493;DHT22;64071;51.466;7.260;2022-10-24T08:34:43;23.80;43.60
75493;DHT22;64071;51.466;7.260;2022-10-24T08:37:09;23.80;43.60
75493;DHT22;64071;51.466;7.260;2022-10-24T08:39:34;23.90;43.50
75493;DHT22;64071;51.466;7.260;2022-10-24T08:42:04;23.90;43.50
75493;DHT22;64071;51.466;7.260;2022-10-24T08:44:42;23.90;43.60
75493;DHT22;64071;51.466;7.260;2022-10-24T08:50:22;23.90;43.40
75493;DHT22;64071;51.466;7.260;2022-10-24T08:52:58;24.00;43.40
75493;DHT22;64071;51.466;7.260;2022-10-24T08:55:50;24.00;43.30
75493;DHT22;64071;51.466;7.260;2022-10-24T09:00:48;24.00;43.30
75493;DHT22;64071;51.466;7.260;2022-10-24T09:05:53;24.00;43.30
75493;DHT22;64071;51.466;7.260;2022-10-24T09:08:39;24.00;43.40
75493;DHT22;64071;51.466;7.260;2022-10-24T09:11:06;24.00;43.20
75493;DHT22;64071;51.466;7.260;2022-10-24T09:13:34;24.00;43.30
75493;DHT22;64071;51.466;7.260;2022-10-24T09:16:01;24.00;43.30
75493;DHT22;64071;51.466;7.260;2022-10-24T09:18:31;24.00;43.30
75493;DHT22;64071;51.466;7.260;2022-10-24T09:20:59;24.00;43.20
75493;DHT22;64071;51.466;7.260;2022-10-24T09:23:25;24.00;43.20
75493;DHT22;64071;51.466;7.260;2022-10-24T09:25:54;24.00;43.30
75493;DHT22;64071;51.466;7.260;2022-10-24T09:28:20;24.00;43.20
75493;DHT22;64071;51.466;7.260;2022-10-24T09:30:47;24.00;43.30
75493;DHT22;64071;51.466;7.260;2022-10-24T09:33:39;24.00;43.30
75493;DHT22;64071;51.466;7.260;2022-10-24T09:36:10;24.00;43.30
75493;DHT22;64071;51.466;7.260;2022-10-24T09:38:38;24.00;43.30
75493;DHT22;64071;51.466;7.260;2022-10-24T09:46:18;24.00;43.30
75493;DHT22;64071;51.466;7.260;2022-10-24T09:48:45;24.00;43.30
75493;DHT22;64071;51.466;7.260;2022-10-24T09:56:53;24.00;43.20
75493;DHT22;64071;51.466;7.260;2022-10-24T10:02:32;24.00;43.20
75493;DHT22;64071;51.466;7.260;2022-10-24T10:07:35;24.10;43.10
75493;DHT22;64071;51.466;7.260;2022-10-24T10:15:49;24.10;43.10
75493;DHT22;64071;51.466;7.260;2022-10-24T10:18:42;24.20;43.00
75493;DHT22;64071;51.466;7.260;2022-10-24T10:21:14;24.20;42.90
75493;DHT22;64071;51.466;7.260;2022-10-24T10:23:49;24.20;42.90
75493;DHT22;64071;51.466;7.260;2022-10-24T10:26:23;24.20;42.90
75493;DHT22;64071;51.466;7.260;2022-10-24T10:31:42;24.20;42.80
75493;DHT22;64071;51.466;7.260;2022-10-24T10:34:22;24.20;42.90
75493;DHT22;64071;51.466;7.260;2022-10-24T10:48:52;24.30;42.80
75493;DHT22;64071;51.466;7.260;2022-10-24T10:51:22;24.20;42.80
75493;DHT22;64071;51.466;7.260;2022-10-24T10:53:59;24.30;42.80
75493;DHT22;64071;51.466;7.260;2022-10-24T10:56:47;24.30;42.80
75493;DHT22;64071;51.466;7.260;2022-10-24T10:59:31;24.20;42.80
75493;DHT22;64071;51.466;7.260;2022-10-24T11:10:38;24.20;42.80
75493;DHT22;64071;51.466;7.260;2022-10-24T11:13:13;24.20;42.70
75493;DHT22;64071;51.466;7.260;2022-10-24T11:15:42;24.20;42.70
75493;DHT22;64071;51.466;7.260;2022-10-24T11:18:21;24.30;42.70
75493;DHT22;64071;51.466;7.260;2022-10-24T11:21:07;24.30;42.80
75493;DHT22;64071;51.466;7.260;2022-10-24T11:23:38;24.30;42.70
75493;DHT22;64071;51.466;7.260;2022-10-24T11:26:29;24.30;42.80
75493;DHT22;64071;51.466;7.260;2022-10-24T11:31:43;24.30;42.90
75493;DHT22;64071;51.466;7.260;2022-10-24T11:34:24;24.30;42.90
75493;DHT22;64071;51.466;7.260;2022-10-24T11:37:05;24.30;42.90
75493;DHT22;64071;51.466;7.260;2022-10-24T11:39:38;24.30;42.90
75493;DHT22;64071;51.466;7.260;2022-10-24T11:45:09;24.30;42.90
75493;DHT22;64071;51.466;7.260;2022-10-24T11:48:03;24.30;42.90
75493;DHT22;64071;51.466;7.260;2022-10-24T11:51:02;24.30;42.90
75493;DHT22;64071;51.466;7.260;2022-10-24T11:56:18;24.40;42.90
75493;DHT22;64071;51.466;7.260;2022-10-24T11:58:52;24.40;42.70
75493;DHT22;64071;51.466;7.260;2022-10-24T12:18:07;24.30;42.90
75493;DHT22;64071;51.466;7.260;2022-10-24T12:20:34;24.30;42.90
75493;DHT22;64071;51.466;7.260;2022-10-24T12:23:01;24.30;42.90
75493;DHT22;64071;51.466;7.260;2022-10-24T12:25:32;24.30;42.80
75493;DHT22;64071;51.466;7.260;2022-10-24T12:28:21;24.30;42.90
75493;DHT22;64071;51.466;7.260;2022-10-24T12:33:44;24.30;42.80
75493;DHT22;64071;51.466;7.260;2022-10-24T12:36:10;24.30;42.80
75493;DHT22;64071;51.466;7.260;2022-10-24T12:41:34;24.30;43.00
75493;DHT22;64071;51.466;7.260;2022-10-24T12:49:24;24.20;43.20
75493;DHT22;64071;51.466;7.260;2022-10-24T12:51:51;24.20;43.30
75493;DHT22;64071;51.466;7.260;2022-10-24T12:54:17;24.30;43.30
75493;DHT22;64071;51.466;7.260;2022-10-24T12:59:52;24.30;43.40
75493;DHT22;64071;51.466;7.260;2022-10-24T13:23:39;24.30;43.60
75493;DHT22;64071;51.466;7.260;2022-10-24T13:26:05;24.30;43.60
75493;DHT22;64071;51.466;7.260;2022-10-24T13:28:37;24.30;43.60
75493;DHT22;64071;51.466;7.260;2022-10-24T13:38:48;24.50;43.20
75493;DHT22;64071;51.466;7.260;2022-10-24T13:41:30;24.60;43.20
75493;DHT22;64071;51.466;7.260;2022-10-24T13:44:31;24.70;43.00
75493;DHT22;64071;51.466;7.260;2022-10-24T13:47:01;24.70;42.80
75493;DHT22;64071;51.466;7.260;2022-10-24T13:49:31;24.80;42.70
75493;DHT22;64071;51.466;7.260;2022-10-24T14:00:33;25.10;42.20
75493;DHT22;64071;51.466;7.260;2022-10-24T14:03:03;25.10;42.10
75493;DHT22;64071;51.466;7.260;2022-10-24T14:05:35;25.10;42.10
75493;DHT22;64071;51.466;7.260;2022-10-24T14:08:02;25.20;42.00
75493;DHT22;64071;51.466;7.260;2022-10-24T14:10:30;25.10;42.00
75493;DHT22;64071;51.466;7.260;2022-10-24T14:12:57;25.10;42.00
75493;DHT22;64071;51.466;7.260;2022-10-24T14:15:32;25.20;41.90
75493;DHT22;64071;51.466;7.260;2022-10-24T14:17:58;25.30;41.70
75493;DHT22;64071;51.466;7.260;2022-10-24T14:20:33;25.40;41.50
75493;DHT22;64071;51.466;7.260;2022-10-24T14:22:59;25.50;41.40
75493;DHT22;64071;51.466;7.260;2022-10-24T14:25:37;25.60;41.20
75493;DHT22;64071;51.466;7.260;2022-10-24T14:28:16;25.60;41.20
75493;DHT22;64071;51.466;7.260;2022-10-24T14:30:52;25.60;41.10
75493;DHT22;64071;51.466;7.260;2022-10-24T14:33:23;25.50;41.30
75493;DHT22;64071;51.466;7.260;2022-10-24T14:35:50;25.40;41.40
75493;DHT22;64071;51.466;7.260;2022-10-24T14:38:16;25.30;41.50
75493;DHT22;64071;51.466;7.260;2022-10-24T14:40:43;25.20;41.50
75493;DHT22;64071;51.466;7.260;2022-10-24T14:43:20;25.30;41.50
75493;DHT22;64071;51.466;7.260;2022-10-24T14:46:08;25.30;41.50
75493;DHT22;64071;51.466;7.260;2022-10-24T14:48:35;25.30;41.40
75493;DHT22;64071;51.466;7.260;2022-10-24T14:51:06;25.20;41.50
75493;DHT22;64071;51.466;7.260;2022-10-24T14:53:39;25.20;41.60
75493;DHT22;64071;51.466;7.260;2022-10-24T14:56:23;25.20;41.70
75493;DHT22;64071;51.466;7.260;2022-10-24T14:58:51;25.10;41.80
75493;DHT22;64071;51.466;7.260;2022-10-24T15:01:19;25.00;42.00
75493;DHT22;64071;51.466;7.260;2022-10-24T15:04:02;24.90;42.10
75493;DHT22;64071;51.466;7.260;2022-10-24T15:06:40;24.90;42.10
75493;DHT22;64071;51.466;7.260;2022-10-24T15:11:44;24.80;42.30
75493;DHT22;64071;51.466;7.260;2022-10-24T15:14:39;24.70;42.40
75493;DHT22;64071;51.466;7.260;2022-10-24T15:17:29;24.70;42.40
75493;DHT22;64071;51.466;7.260;2022-10-24T15:19:57;24.60;42.50
75493;DHT22;64071;51.466;7.260;2022-10-24T15:22:34;24.60;42.60
75493;DHT22;64071;51.466;7.260;2022-10-24T15:25:16;24.50;42.70
75493;DHT22;64071;51.466;7.260;2022-10-24T15:27:43;24.50;42.80
75493;DHT22;64071;51.466;7.260;2022-10-24T15:30:20;24.40;42.90
75493;DHT22;64071;51.466;7.260;2022-10-24T15:32:48;24.40;43.00
75493;DHT22;64071;51.466;7.260;2022-10-24T15:35:14;24.40;43.10
75493;DHT22;64071;51.466;7.260;2022-10-24T15:37:50;24.30;43.10
75493;DHT22;64071;51.466;7.260;2022-10-24T15:40:21;24.30;43.10
75493;DHT22;64071;51.466;7.260;2022-10-24T15:42:47;24.30;43.10
75493;DHT22;64071;51.466;7.260;2022-10-24T15:45:14;24.30;43.10
75493;DHT22;64071;51.466;7.260;2022-10-24T15:47:41;24.30;43.20
75493;DHT22;64071;51.466;7.260;2022-10-24T15:50:06;24.30;43.20
75493;DHT22;64071;51.466;7.260;2022-10-24T15:52:33;24.20;43.30
75493;DHT22;64071;51.466;7.260;2022-10-24T15:54:59;24.20;43.50
75493;DHT22;64071;51.466;7.260;2022-10-24T15:57:25;24.20;43.60
75493;DHT22;64071;51.466;7.260;2022-10-24T15:59:50;24.20;43.80
75493;DHT22;64071;51.466;7.260;2022-10-24T16:02:21;24.20;44.00
75493;DHT22;64071;51.466;7.260;2022-10-24T16:04:48;24.20;44.10
75493;DHT22;64071;51.466;7.260;2022-10-24T16:07:13;24.10;44.30
75493;DHT22;64071;51.466;7.260;2022-10-24T16:09:39;24.10;44.40
75493;DHT22;64071;51.466;7.260;2022-10-24T16:12:05;24.10;44.40
75493;DHT22;64071;51.466;7.260;2022-10-24T16:14:31;24.10;44.20
75493;DHT22;64071;51.466;7.260;2022-10-24T16:16:57;24.10;44.30
75493;DHT22;64071;51.466;7.260;2022-10-24T16:19:24;24.00;44.30
75493;DHT22;64071;51.466;7.260;2022-10-24T16:21:54;24.00;44.40
75493;DHT22;64071;51.466;7.260;2022-10-24T16:24:23;24.00;44.40
75493;DHT22;64071;51.466;7.260;2022-10-24T16:26:49;24.00;44.40
75493;DHT22;64071;51.466;7.260;2022-10-24T16:29:15;23.90;44.50
75493;DHT22;64071;51.466;7.260;2022-10-24T16:31:40;23.90;44.50
75493;DHT22;64071;51.466;7.260;2022-10-24T16:34:07;23.90;44.60
75493;DHT22;64071;51.466;7.260;2022-10-24T16:36:33;23.90;44.60
75493;DHT22;64071;51.466;7.260;2022-10-24T16:38:59;23.90;44.70
75493;DHT22;64071;51.466;7.260;2022-10-24T16:41:25;23.80;44.70
75493;DHT22;64071;51.466;7.260;2022-10-24T16:43:53;23.80;44.80
75493;DHT22;64071;51.466;7.260;2022-10-24T16:46:21;23.80;44.90
75493;DHT22;64071;51.466;7.260;2022-10-24T16:48:47;23.80;44.90
75493;DHT22;64071;51.466;7.260;2022-10-24T16:51:15;23.70;45.00
75493;DHT22;64071;51.466;7.260;2022-10-24T16:53:41;23.70;45.00
75493;DHT22;64071;51.466;7.260;2022-10-24T16:56:12;23.70;45.00
75493;DHT22;64071;51.466;7.260;2022-10-24T16:58:38;23.70;45.10
75493;DHT22;64071;51.466;7.260;2022-10-24T17:01:11;23.70;45.10
75493;DHT22;64071;51.466;7.260;2022-10-24T17:03:37;23.60;45.20
75493;DHT22;64071;51.466;7.260;2022-10-24T17:06:03;23.60;45.20
75493;DHT22;64071;51.466;7.260;2022-10-24T17:08:30;23.60;45.30
75493;DHT22;64071;51.466;7.260;2022-10-24T17:10:56;23.60;45.30
75493;DHT22;64071;51.466;7.260;2022-10-24T17:13:22;23.60;45.30
75493;DHT22;64071;51.466;7.260;2022-10-24T17:15:48;23.60;45.40
75493;DHT22;64071;51.466;7.260;2022-10-24T17:18:14;23.50;45.40
75493;DHT22;64071;51.466;7.260;2022-10-24T17:20:43;23.50;45.50
75493;DHT22;64071;51.466;7.260;2022-10-24T17:23:14;23.50;45.50
75493;DHT22;64071;51.466;7.260;2022-10-24T17:25:41;23.50;45.50
75493;DHT22;64071;51.466;7.260;2022-10-24T17:28:06;23.50;45.50
75493;DHT22;64071;51.466;7.260;2022-10-24T17:30:33;23.50;45.60
75493;DHT22;64071;51.466;7.260;2022-10-24T17:32:58;23.50;45.60
75493;DHT22;64071;51.466;7.260;2022-10-24T17:35:25;23.50;45.70
75493;DHT22;64071;51.466;7.260;2022-10-24T17:38:27;23.40;45.70
75493;DHT22;64071;51.466;7.260;2022-10-24T17:40:56;23.40;45.70
75493;DHT22;64071;51.466;7.260;2022-10-24T17:43:26;23.40;45.70
75493;DHT22;64071;51.466;7.260;2022-10-24T17:45:54;23.40;45.80
75493;DHT22;64071;51.466;7.260;2022-10-24T17:48:20;23.40;45.80
75493;DHT22;64071;51.466;7.260;2022-10-24T17:50:46;23.40;45.80
75493;DHT22;64071;51.466;7.260;2022-10-24T17:53:13;23.40;45.90
75493;DHT22;64071;51.466;7.260;2022-10-24T17:55:40;23.40;45.90
75493;DHT22;64071;51.466;7.260;2022-10-24T17:58:05;23.40;45.90
75493;DHT22;64071;51.466;7.260;2022-10-24T18:00:31;23.40;45.90
75493;DHT22;64071;51.466;7.260;2022-10-24T18:02:57;23.40;45.90
75493;DHT22;64071;51.466;7.260;2022-10-24T18:05:22;23.40;45.90
75493;DHT22;64071;51.466;7.260;2022-10-24T18:07:48;23.40;45.90
75493;DHT22;64071;51.466;7.260;2022-10-24T18:10:15;23.40;45.90
75493;DHT22;64071;51.466;7.260;2022-10-24T18:12:42;23.40;46.00
75493;DHT22;64071;51.466;7.260;2022-10-24T18:15:15;23.40;46.00
75493;DHT22;64071;51.466;7.260;2022-10-24T18:17:42;23.30;46.00
75493;DHT22;64071;51.466;7.260;2022-10-24T18:20:07;23.30;46.00
75493;DHT22;64071;51.466;7.260;2022-10-24T18:22:35;23.30;46.00
75493;DHT22;64071;51.466;7.260;2022-10-24T18:25:06;23.30;46.10
75493;DHT22;64071;51.466;7.260;2022-10-24T18:27:33;23.30;46.10